Terminal Aerodrome Forecast
Issued by NWS Tallahassee, FL

Home | Current Version | Previous Version | Text Only | Print | Product List | Glossary On
Versions: 1 2 3 4 5 6 7 8 9 10 11 12 13 14 15 16 17
000
FTUS42 KTAE 240538
TAFTLH
TAF
KTLH 240538Z 2406/2506 17003KT P6SM SKC
     FM240800 00000KT 1/2SM FG BKN004
     FM241200 25007KT P6SM BKN035
     FM250000 00000KT P6SM SCT050=

USA.gov is the U.S. government's official web portal to all federal, state and local government web resources and services.